createdAt,value
2019-05-15T00:00:40.251Z,99.90
2019-05-15T00:03:08.927Z,99.90
2019-05-15T00:05:39.032Z,99.90
2019-05-15T00:08:09.141Z,99.90
2019-05-15T00:10:39.109Z,99.90
2019-05-15T00:13:09.226Z,99.90
2019-05-15T00:15:40.134Z,99.90
2019-05-15T00:18:09.557Z,99.90
2019-05-15T00:20:39.385Z,99.90
2019-05-15T00:23:08.754Z,99.90
2019-05-15T00:25:39.349Z,99.90
2019-05-15T00:28:09.354Z,99.90
2019-05-15T00:30:38.848Z,99.90
2019-05-15T00:33:09.319Z,99.90
2019-05-15T00:35:39.412Z,99.90
2019-05-15T00:38:09.316Z,99.90
2019-05-15T00:40:39.350Z,99.90
2019-05-15T00:43:08.767Z,99.90
2019-05-15T00:45:38.582Z,99.90
2019-05-15T00:48:08.794Z,99.90
2019-05-15T00:50:39.222Z,99.90
2019-05-15T00:53:08.687Z,99.90
2019-05-15T00:55:39.248Z,99.90
2019-05-15T00:58:08.714Z,99.90
2019-05-15T01:00:48.698Z,99.90
2019-05-15T01:03:18.269Z,99.90
2019-05-15T01:05:48.027Z,99.90
2019-05-15T01:08:19.209Z,99.90
2019-05-15T01:10:48.859Z,99.90
2019-05-15T01:13:19.018Z,99.90
2019-05-15T01:15:49.582Z,99.90
2019-05-15T01:18:18.707Z,99.90
2019-05-15T01:20:49.435Z,99.90
2019-05-15T01:23:18.852Z,99.90
2019-05-15T01:25:48.195Z,99.90
2019-05-15T01:28:18.479Z,99.90
2019-05-15T01:30:48.700Z,99.90
2019-05-15T01:33:19.014Z,99.90
2019-05-15T01:35:48.781Z,99.90
2019-05-15T01:38:18.753Z,99.90
2019-05-15T01:40:48.542Z,99.90
2019-05-15T01:43:18.726Z,99.90
2019-05-15T01:45:48.365Z,99.90
2019-05-15T01:48:18.935Z,99.90
2019-05-15T01:50:49.308Z,99.90
2019-05-15T01:53:18.705Z,99.90
2019-05-15T01:55:48.350Z,99.90
2019-05-15T01:58:18.724Z,99.90
2019-05-15T02:00:48.339Z,99.90
2019-05-15T02:03:18.365Z,99.90
2019-05-15T02:05:48.077Z,99.90
2019-05-15T02:08:19.034Z,99.90
2019-05-15T02:10:49.401Z,99.90
2019-05-15T02:13:18.690Z,99.90
2019-05-15T02:15:48.318Z,99.90
2019-05-15T02:18:18.948Z,99.90
2019-05-15T02:20:49.399Z,99.90
2019-05-15T02:23:18.902Z,99.90
2019-05-15T02:25:48.106Z,99.90
2019-05-15T02:28:18.426Z,99.90
2019-05-15T02:30:50.393Z,99.90
2019-05-15T02:33:18.927Z,99.90
2019-05-15T02:35:50.090Z,99.90
2019-05-15T02:38:20.983Z,99.90
2019-05-15T02:40:49.585Z,99.90
2019-05-15T02:43:19.179Z,99.90
2019-05-15T02:45:50.850Z,99.90
2019-05-15T02:48:19.975Z,99.90
2019-05-15T02:50:50.108Z,99.90
2019-05-15T02:53:19.129Z,99.90
2019-05-15T02:55:49.484Z,99.90
2019-05-15T02:58:21.204Z,99.90
2019-05-15T03:00:53.170Z,99.90
2019-05-15T03:03:20.588Z,99.90
2019-05-15T03:05:49.954Z,99.90
2019-05-15T03:08:19.563Z,99.90
2019-05-15T03:10:49.687Z,99.90
2019-05-15T03:13:19.084Z,99.90
2019-05-15T03:15:48.873Z,99.90
2019-05-15T03:18:19.425Z,99.90
2019-05-15T03:20:50.943Z,99.90
2019-05-15T03:23:20.146Z,99.90
2019-05-15T03:25:49.154Z,99.90
2019-05-15T03:28:19.041Z,99.90
2019-05-15T03:31:15.393Z,99.90
2019-05-15T03:33:27.121Z,99.90
2019-05-15T03:35:54.068Z,99.90
2019-05-15T03:38:21.298Z,99.90
2019-05-15T03:40:50.033Z,99.90
2019-05-15T03:43:18.760Z,99.90
2019-05-15T03:45:49.281Z,99.90
2019-05-15T03:48:19.623Z,99.90
2019-05-15T03:50:48.938Z,99.90
2019-05-15T03:53:19.270Z,99.90
2019-05-15T03:55:49.044Z,99.90
2019-05-15T03:58:21.460Z,99.90
2019-05-15T04:00:49.809Z,99.90
2019-05-15T04:03:20.910Z,99.90
2019-05-15T04:05:49.811Z,99.90
2019-05-15T04:08:19.547Z,99.90
2019-05-15T04:10:48.947Z,99.90
2019-05-15T04:13:19.582Z,99.90
2019-05-15T04:15:50.280Z,99.90
2019-05-15T04:18:19.852Z,99.90
2019-05-15T04:20:49.358Z,99.90
2019-05-15T04:23:21.283Z,99.90
2019-05-15T04:25:52.487Z,99.90
2019-05-15T04:28:22.106Z,99.90
2019-05-15T04:30:51.044Z,99.90
2019-05-15T04:33:20.135Z,99.90
2019-05-15T04:35:49.711Z,99.90
2019-05-15T04:38:19.548Z,99.90
2019-05-15T04:40:50.067Z,99.90
2019-05-15T04:43:19.437Z,99.90
2019-05-15T04:45:49.802Z,99.90
2019-05-15T04:48:20.195Z,99.90
2019-05-15T04:50:49.606Z,99.90
2019-05-15T04:53:19.386Z,99.90
2019-05-15T04:55:49.142Z,99.90
2019-05-15T04:58:20.907Z,99.90
2019-05-15T05:00:53.482Z,99.90
2019-05-15T05:03:22.748Z,99.90
2019-05-15T05:05:51.395Z,99.90
2019-05-15T05:08:20.863Z,99.90
2019-05-15T05:10:50.468Z,99.90
2019-05-15T05:13:20.108Z,99.90
2019-05-15T05:15:49.946Z,99.90
2019-05-15T05:18:22.155Z,99.90
2019-05-15T05:20:51.014Z,99.90
2019-05-15T05:23:19.726Z,99.90
2019-05-15T05:25:49.719Z,99.90
2019-05-15T05:28:19.579Z,99.90
2019-05-15T05:30:48.641Z,99.90
2019-05-15T05:33:18.413Z,99.90
2019-05-15T05:35:48.555Z,99.90
2019-05-15T05:38:19.054Z,99.90
2019-05-15T05:40:49.566Z,99.90
2019-05-15T05:43:19.236Z,99.90
2019-05-15T05:45:49.356Z,99.90
2019-05-15T05:48:18.838Z,99.90
2019-05-15T05:50:49.602Z,99.90
2019-05-15T05:53:20.820Z,99.90
2019-05-15T05:55:54.282Z,99.90
2019-05-15T05:58:29.757Z,99.90
2019-05-15T06:00:58.858Z,99.90
2019-05-15T06:03:35.400Z,99.90
2019-05-15T06:06:04.982Z,99.90
2019-05-15T06:08:33.442Z,99.90
2019-05-15T06:11:02.516Z,99.90
2019-05-15T06:13:31.064Z,99.90
2019-05-15T06:15:59.517Z,99.90
2019-05-15T06:18:28.258Z,99.90
2019-05-15T06:20:58.610Z,99.90
2019-05-15T06:23:33.682Z,99.90
2019-05-15T06:25:59.273Z,99.90
2019-05-15T06:28:28.920Z,99.90
2019-05-15T06:31:00.753Z,99.90
2019-05-15T06:33:28.654Z,99.90
2019-05-15T06:35:59.187Z,99.90
2019-05-15T06:38:30.962Z,99.90
2019-05-15T06:40:58.302Z,99.90
2019-05-15T06:43:28.060Z,99.90
2019-05-15T06:45:58.446Z,99.90
2019-05-15T06:48:28.904Z,99.90
2019-05-15T06:50:57.990Z,99.90
2019-05-15T06:53:29.073Z,99.90
2019-05-15T06:55:58.504Z,99.90
2019-05-15T06:58:29.015Z,99.90
2019-05-15T07:00:59.227Z,99.90
2019-05-15T07:03:29.468Z,99.90
2019-05-15T07:05:59.998Z,99.90
2019-05-15T07:08:28.896Z,99.90
2019-05-15T07:10:57.939Z,99.90
2019-05-15T07:13:29.015Z,99.90
2019-05-15T07:15:58.530Z,99.90
2019-05-15T07:18:28.357Z,99.90
2019-05-15T07:20:58.138Z,99.90
2019-05-15T07:23:30.471Z,99.90
2019-05-15T07:25:58.777Z,99.90
2019-05-15T07:28:28.958Z,99.90
2019-05-15T07:30:58.322Z,99.90
2019-05-15T07:33:36.849Z,99.90
2019-05-15T07:35:59.014Z,99.90
2019-05-15T07:38:28.218Z,99.90
2019-05-15T07:41:01.053Z,99.90
2019-05-15T07:43:28.117Z,99.90
2019-05-15T07:45:58.988Z,99.90
2019-05-15T07:48:29.110Z,99.90
2019-05-15T07:50:59.495Z,99.90
2019-05-15T07:53:28.899Z,99.90
2019-05-15T07:56:01.218Z,99.90
2019-05-15T07:58:28.105Z,99.90
2019-05-15T08:00:58.976Z,99.90
2019-05-15T08:03:29.271Z,99.90
2019-05-15T08:06:02.658Z,99.90
2019-05-15T08:08:28.983Z,99.90
2019-05-15T08:10:58.151Z,99.20
2019-05-15T08:13:28.915Z,99.60
2019-05-15T08:15:58.026Z,99.90
2019-05-15T08:18:28.591Z,99.20
2019-05-15T08:20:58.558Z,98.90
2019-05-15T08:23:28.385Z,98.90
2019-05-15T08:25:57.894Z,99.40
2019-05-15T08:28:28.731Z,98.20
2019-05-15T08:30:58.376Z,97.70
2019-05-15T08:33:28.040Z,95.10
2019-05-15T08:35:58.777Z,94.90
2019-05-15T08:38:28.783Z,95.00
2019-05-15T08:40:59.305Z,94.60
2019-05-15T08:43:29.084Z,95.80
2019-05-15T08:45:58.646Z,95.50
2019-05-15T08:48:27.804Z,96.20
2019-05-15T08:50:58.336Z,94.70
2019-05-15T08:53:28.489Z,92.70
2019-05-15T08:55:58.759Z,91.90
2019-05-15T08:58:29.116Z,90.10
2019-05-15T09:00:58.893Z,89.80
2019-05-15T09:03:28.613Z,87.60
2019-05-15T09:05:59.735Z,86.60
2019-05-15T09:08:29.393Z,83.80
2019-05-15T09:10:58.800Z,84.80
2019-05-15T09:13:29.246Z,86.20
2019-05-15T09:15:58.873Z,76.60
2019-05-15T09:18:28.552Z,78.00
2019-05-15T09:20:59.330Z,75.60
2019-05-15T09:23:28.923Z,71.80
2019-05-15T09:25:57.945Z,70.40
2019-05-15T09:28:29.273Z,67.30
2019-05-15T09:30:58.998Z,69.60
2019-05-15T09:33:28.600Z,70.60
2019-05-15T09:35:58.347Z,67.90
2019-05-15T09:38:28.890Z,69.30
2019-05-15T09:40:58.497Z,67.50
2019-05-15T09:43:28.759Z,64.90
2019-05-15T09:45:58.298Z,66.30
2019-05-15T09:48:30.521Z,62.10
2019-05-15T09:50:58.987Z,64.10
2019-05-15T09:53:28.452Z,64.20
2019-05-15T09:55:59.753Z,67.40
2019-05-15T09:58:30.018Z,65.10
2019-05-15T10:01:02.000Z,66.40
2019-05-15T10:03:30.277Z,64.70
2019-05-15T10:05:59.012Z,65.00
2019-05-15T10:08:29.202Z,65.00
2019-05-15T10:10:59.349Z,63.40
2019-05-15T10:13:29.021Z,66.60
2019-05-15T10:15:58.554Z,64.80
2019-05-15T10:18:28.265Z,67.30
2019-05-15T10:21:01.638Z,64.80
2019-05-15T10:23:30.116Z,60.40
2019-05-15T10:25:59.058Z,57.60
2019-05-15T10:28:29.373Z,58.70
2019-05-15T10:31:00.044Z,55.80
2019-05-15T10:33:30.299Z,56.90
2019-05-15T10:35:59.114Z,58.80
2019-05-15T10:38:28.614Z,55.90
2019-05-15T10:41:08.022Z,55.30
2019-05-15T10:43:28.729Z,55.20
2019-05-15T10:45:58.731Z,54.70
2019-05-15T10:48:29.191Z,57.80
2019-05-15T10:51:01.901Z,53.70
2019-05-15T10:53:29.704Z,54.40
2019-05-15T10:55:59.603Z,51.80
2019-05-15T10:58:28.909Z,52.40
2019-05-15T11:01:02.209Z,52.50
2019-05-15T11:03:29.865Z,53.40
2019-05-15T11:05:58.795Z,51.70
2019-05-15T11:08:28.945Z,55.30
2019-05-15T11:10:58.513Z,55.30
2019-05-15T11:13:28.892Z,51.70
2019-05-15T11:15:57.990Z,50.00
2019-05-15T11:18:30.465Z,49.70
2019-05-15T11:20:59.349Z,49.00
2019-05-15T11:23:29.303Z,48.80
2019-05-15T11:25:58.211Z,50.10
2019-05-15T11:28:31.569Z,51.40
2019-05-15T11:30:59.397Z,48.90
2019-05-15T11:33:29.227Z,49.40
2019-05-15T11:36:04.447Z,48.70
2019-05-15T11:38:28.911Z,47.80
2019-05-15T11:40:59.958Z,48.20
2019-05-15T11:43:29.341Z,47.90
2019-05-15T11:45:58.973Z,46.20
2019-05-15T11:48:29.787Z,46.80
2019-05-15T11:50:57.947Z,47.60
2019-05-15T11:53:28.446Z,46.30
2019-05-15T11:55:59.671Z,47.50
2019-05-15T11:58:28.176Z,47.20
2019-05-15T12:00:57.912Z,47.50
2019-05-15T12:03:29.044Z,47.20
2019-05-15T12:05:59.631Z,49.50
2019-05-15T12:08:29.343Z,46.80
2019-05-15T12:10:59.131Z,47.20
2019-05-15T12:13:28.167Z,48.20
2019-05-15T12:15:58.718Z,48.00
2019-05-15T12:18:28.559Z,46.20
2019-05-15T12:20:59.471Z,47.60
2019-05-15T12:23:29.329Z,45.90
2019-05-15T12:25:59.735Z,46.10
2019-05-15T12:31:00.249Z,46.10
2019-05-15T12:33:29.178Z,45.70
2019-05-15T12:35:59.287Z,45.50
2019-05-15T12:38:28.912Z,46.40
2019-05-15T13:01:16.637Z,46.40
2019-05-15T13:03:35.539Z,44.40
2019-05-15T13:06:05.001Z,46.00
2019-05-15T13:08:33.468Z,46.60
2019-05-15T13:11:02.467Z,45.30
2019-05-15T13:13:32.266Z,47.00
2019-05-15T13:16:01.013Z,46.80
2019-05-15T13:18:29.552Z,45.00
2019-05-15T13:20:59.389Z,47.40
2019-05-15T13:23:28.639Z,46.10
2019-05-15T13:25:59.262Z,44.90
2019-05-15T13:28:30.134Z,45.50
2019-05-15T13:30:59.575Z,45.20
2019-05-15T13:33:28.441Z,46.10
2019-05-15T13:35:58.459Z,44.90
2019-05-15T13:38:28.818Z,49.00
2019-05-15T13:41:00.305Z,46.90
2019-05-15T13:43:29.241Z,46.50
2019-05-15T13:45:59.095Z,48.40
2019-05-15T13:48:29.255Z,46.40
2019-05-15T13:50:59.009Z,45.10
2019-05-15T13:53:29.306Z,44.70
2019-05-15T13:55:58.094Z,44.70
2019-05-15T13:58:28.249Z,45.50
2019-05-15T14:00:58.823Z,46.80
2019-05-15T14:03:29.089Z,46.40
2019-05-15T14:05:58.365Z,45.30
2019-05-15T14:08:28.799Z,46.00
2019-05-15T14:10:58.301Z,46.20
2019-05-15T14:13:28.764Z,48.00
2019-05-15T14:15:58.204Z,44.40
2019-05-15T14:18:28.710Z,45.10
2019-05-15T14:20:58.414Z,43.80
2019-05-15T14:23:29.464Z,45.00
2019-05-15T14:25:59.006Z,44.10
2019-05-15T14:28:28.553Z,44.80
2019-05-15T14:30:58.694Z,46.00
2019-05-15T14:33:29.193Z,45.20
2019-05-15T14:35:57.826Z,45.00
2019-05-15T14:38:29.039Z,46.30
2019-05-15T14:40:59.122Z,45.80
2019-05-15T14:43:29.456Z,46.30
2019-05-15T14:45:58.700Z,46.70
2019-05-15T14:48:28.133Z,47.00
2019-05-15T14:50:58.589Z,49.20
2019-05-15T14:53:29.417Z,47.00
2019-05-15T14:56:00.254Z,46.80
2019-05-15T14:58:28.017Z,47.70
2019-05-15T15:01:02.303Z,46.20
2019-05-15T15:03:28.856Z,45.60
2019-05-15T15:05:58.340Z,46.60
2019-05-15T15:08:29.902Z,46.80
2019-05-15T15:10:59.774Z,46.80
2019-05-15T15:13:31.187Z,46.00
2019-05-15T15:15:59.826Z,45.90
2019-05-15T15:18:30.781Z,46.20
2019-05-15T15:21:00.587Z,47.00
2019-05-15T15:23:29.958Z,45.30
2019-05-15T15:26:00.074Z,44.60
2019-05-15T15:28:28.932Z,45.30
2019-05-15T15:30:59.869Z,44.30
2019-05-15T15:33:30.179Z,43.30
2019-05-15T15:35:59.168Z,44.10
2019-05-15T15:38:40.244Z,44.40
2019-05-15T15:41:00.279Z,45.50
2019-05-15T15:43:31.263Z,46.10
2019-05-15T15:45:59.788Z,46.50
2019-05-15T15:48:28.709Z,45.70
2019-05-15T15:50:58.590Z,45.90
2019-05-15T15:53:29.331Z,46.80
2019-05-15T15:55:57.876Z,47.50
2019-05-15T15:58:29.045Z,47.40
2019-05-15T16:00:57.666Z,49.10
2019-05-15T16:03:28.614Z,45.00
2019-05-15T16:05:56.840Z,49.30
2019-05-15T16:08:25.694Z,45.30
2019-05-15T16:10:54.642Z,47.20
2019-05-15T16:13:24.298Z,47.00
2019-05-15T16:15:53.074Z,46.50
2019-05-15T16:18:22.442Z,48.60
2019-05-15T16:20:51.750Z,47.40
2019-05-15T16:23:21.709Z,47.90
2019-05-15T16:25:50.306Z,46.50
2019-05-15T16:28:18.828Z,47.40
2019-05-15T16:30:51.379Z,49.60
2019-05-15T16:33:18.588Z,48.90
2019-05-15T16:35:49.372Z,47.60
2019-05-15T16:38:19.200Z,47.30
2019-05-15T16:40:48.935Z,47.70
2019-05-15T16:43:18.483Z,47.70
2019-05-15T16:45:49.589Z,46.50
2019-05-15T16:48:18.739Z,48.80
2019-05-15T16:50:48.763Z,54.60
2019-05-15T16:53:18.255Z,56.40
2019-05-15T16:55:48.068Z,50.20
2019-05-15T16:58:19.183Z,48.90
2019-05-15T17:00:49.634Z,50.30
2019-05-15T17:03:18.493Z,54.00
2019-05-15T17:05:48.013Z,52.30
2019-05-15T17:08:17.973Z,57.20
2019-05-15T17:10:48.297Z,52.50
2019-05-15T17:13:17.631Z,53.80
2019-05-15T17:15:47.849Z,51.00
2019-05-15T17:18:18.099Z,53.80
2019-05-15T17:20:48.465Z,52.50
2019-05-15T17:23:18.899Z,56.50
2019-05-15T17:25:48.821Z,55.20
2019-05-15T17:28:18.562Z,56.00
2019-05-15T17:30:48.963Z,51.10
2019-05-15T17:33:18.471Z,61.20
2019-05-15T17:35:48.833Z,53.30
2019-05-15T17:38:24.459Z,52.40
2019-05-15T17:40:54.789Z,54.10
2019-05-15T17:43:28.849Z,58.80
2019-05-15T17:45:58.914Z,58.30
2019-05-15T17:48:28.881Z,63.10
2019-05-15T17:50:59.144Z,60.90
2019-05-15T17:53:28.812Z,54.60
2019-05-15T17:55:59.427Z,53.20
2019-05-15T17:58:29.629Z,58.20
2019-05-15T18:00:59.539Z,59.00
2019-05-15T18:03:28.894Z,55.10
2019-05-15T18:05:59.174Z,56.10
2019-05-15T18:08:28.604Z,55.90
2019-05-15T18:10:58.712Z,58.70
2019-05-15T18:13:28.737Z,58.20
2019-05-15T18:16:03.013Z,63.90
2019-05-15T18:18:27.710Z,61.60
2019-05-15T18:20:58.120Z,61.40
2019-05-15T18:23:26.430Z,55.50
2019-05-15T18:25:55.520Z,55.70
2019-05-15T18:28:24.061Z,54.60
2019-05-15T18:30:52.882Z,55.80
2019-05-15T18:33:22.586Z,61.70
2019-05-15T18:35:51.131Z,68.40
2019-05-15T18:38:19.954Z,68.50
2019-05-15T18:40:48.835Z,73.40
2019-05-15T18:43:18.890Z,72.90
2019-05-15T18:45:48.130Z,63.40
2019-05-15T18:48:18.378Z,76.50
2019-05-15T18:50:48.196Z,72.90
2019-05-15T18:53:16.860Z,64.90
2019-05-15T18:55:45.695Z,65.00
2019-05-15T18:58:14.498Z,70.30
2019-05-15T19:00:43.494Z,69.10
2019-05-15T19:03:19.598Z,74.70
2019-05-15T19:05:43.089Z,85.90
2019-05-15T19:08:11.981Z,79.20
2019-05-15T19:10:40.905Z,80.10
2019-05-15T19:13:10.918Z,87.00
2019-05-15T19:15:40.059Z,87.40
2019-05-15T19:18:08.525Z,87.90
2019-05-15T19:20:38.833Z,83.50
2019-05-15T19:23:08.048Z,81.70
2019-05-15T19:25:37.770Z,90.00
2019-05-15T19:28:08.437Z,91.60
2019-05-15T19:30:38.953Z,90.30
2019-05-15T19:33:07.943Z,88.40
2019-05-15T19:35:38.499Z,83.30
2019-05-15T19:38:07.235Z,88.60
2019-05-15T19:40:35.791Z,84.40
2019-05-15T19:43:09.927Z,90.30
2019-05-15T19:45:39.864Z,89.20
2019-05-15T19:48:08.915Z,91.50
2019-05-15T19:50:37.631Z,92.40
2019-05-15T19:53:08.025Z,89.00
2019-05-15T19:55:37.886Z,87.00
2019-05-15T19:58:08.740Z,86.60
2019-05-15T20:00:38.781Z,86.70
2019-05-15T20:03:08.419Z,86.00
2019-05-15T20:05:38.084Z,87.80
2019-05-15T20:08:07.797Z,85.30
2019-05-15T20:10:39.227Z,86.20
2019-05-15T20:13:08.294Z,84.70
2019-05-15T20:15:38.425Z,86.00
2019-05-15T20:18:08.514Z,84.30
2019-05-15T20:20:38.602Z,90.10
2019-05-15T20:23:11.347Z,85.70
2019-05-15T20:25:42.791Z,84.90
2019-05-15T20:28:12.465Z,84.10
2019-05-15T20:30:51.749Z,84.90
2019-05-15T20:33:28.550Z,85.70
2019-05-15T20:36:04.242Z,84.10
2019-05-15T20:38:33.860Z,86.30
2019-05-15T20:41:02.392Z,83.90
2019-05-15T20:43:31.168Z,84.10
2019-05-15T20:46:00.263Z,83.60
2019-05-15T20:48:29.009Z,83.40
2019-05-15T20:50:58.898Z,84.60
2019-05-15T20:53:28.695Z,84.00
2019-05-15T20:55:58.942Z,85.00
2019-05-15T20:58:27.756Z,83.60
2019-05-15T21:00:58.865Z,83.90
2019-05-15T21:03:26.742Z,84.70
2019-05-15T21:05:57.768Z,84.10
2019-05-15T21:08:28.759Z,84.50
2019-05-15T21:10:58.772Z,85.50
2019-05-15T21:13:29.662Z,86.20
2019-05-15T21:15:59.590Z,86.00
2019-05-15T21:18:31.742Z,85.90
2019-05-15T21:21:00.278Z,89.30
2019-05-15T21:23:28.742Z,87.00
2019-05-15T21:25:59.111Z,87.60
2019-05-15T21:28:29.954Z,88.00
2019-05-15T21:30:58.160Z,88.00
2019-05-15T21:33:27.597Z,88.80
2019-05-15T21:35:58.232Z,89.30
2019-05-15T21:38:28.326Z,90.20
2019-05-15T21:40:58.464Z,91.90
2019-05-15T21:43:27.457Z,95.10
2019-05-15T21:45:56.274Z,95.00
2019-05-15T21:48:28.977Z,92.10
2019-05-15T21:50:58.278Z,91.80
2019-05-15T21:53:28.741Z,91.90
2019-05-15T21:55:58.832Z,91.40
2019-05-15T21:58:28.436Z,91.50
2019-05-15T22:00:58.118Z,91.90
2019-05-15T22:03:28.735Z,91.70
2019-05-15T22:05:59.215Z,95.20
2019-05-15T22:08:27.925Z,92.10
2019-05-15T22:11:12.638Z,92.40
2019-05-15T22:13:41.528Z,91.70
2019-05-15T22:16:11.340Z,92.10
2019-05-15T22:18:39.819Z,93.70
2019-05-15T22:21:08.687Z,92.90
2019-05-15T22:23:39.140Z,92.10
2019-05-15T22:26:09.203Z,92.20
2019-05-15T22:28:38.624Z,92.80
2019-05-15T22:31:08.872Z,93.70
2019-05-15T22:33:37.665Z,94.40
2019-05-15T22:36:08.382Z,93.90
2019-05-15T22:38:36.977Z,93.30
2019-05-15T22:41:05.552Z,93.60
2019-05-15T22:43:39.231Z,93.80
2019-05-15T22:46:10.736Z,93.30
2019-05-15T22:48:38.258Z,92.50
2019-05-15T22:51:07.197Z,92.40
2019-05-15T22:53:39.531Z,92.60
2019-05-15T22:56:09.813Z,92.60
2019-05-15T22:58:39.857Z,92.50
2019-05-15T23:01:09.330Z,92.00
2019-05-15T23:03:39.429Z,92.70
2019-05-15T23:06:08.494Z,92.60
2019-05-15T23:08:38.386Z,92.90
2019-05-15T23:11:09.559Z,93.70
2019-05-15T23:13:38.945Z,93.10
2019-05-15T23:16:08.408Z,93.10
2019-05-15T23:18:36.870Z,93.60
2019-05-15T23:21:05.624Z,92.80
2019-05-15T23:23:34.411Z,96.60
2019-05-15T23:26:02.884Z,97.10
2019-05-15T23:28:31.757Z,97.10
2019-05-15T23:31:00.470Z,95.40
2019-05-15T23:33:28.921Z,98.20
2019-05-15T23:35:58.737Z,98.80
2019-05-15T23:38:28.007Z,97.20
2019-05-15T23:40:58.741Z,99.30
2019-05-15T23:43:28.256Z,99.30
2019-05-15T23:45:58.870Z,99.90
2019-05-15T23:48:28.400Z,99.90
2019-05-15T23:50:59.155Z,99.90
2019-05-15T23:53:28.858Z,99.90
2019-05-15T23:55:58.729Z,99.90
2019-05-15T23:58:29.141Z,99.90
